createdAt,value
2018-10-09T00:02:14.226Z,94.81
2018-10-09T00:04:43.600Z,95.72
2018-10-09T00:07:12.543Z,96.11
2018-10-09T00:09:41.441Z,96.37
2018-10-09T00:12:10.879Z,95.98
2018-10-09T00:14:39.879Z,95.72
2018-10-09T00:17:08.932Z,95.37
2018-10-09T00:19:38.779Z,95.90
2018-10-09T00:22:07.719Z,96.77
2018-10-09T00:24:36.723Z,96.82
2018-10-09T00:27:06.119Z,96.93
2018-10-09T00:29:35.172Z,97.54
2018-10-09T00:32:04.126Z,97.45
2018-10-09T00:34:33.541Z,97.74
2018-10-09T00:37:02.490Z,97.78
2018-10-09T00:39:31.558Z,98.08
2018-10-09T00:42:00.681Z,96.69
2018-10-09T00:44:29.908Z,97.01
2018-10-09T00:46:58.832Z,98.30
2018-10-09T00:49:27.879Z,97.20
2018-10-09T00:51:56.768Z,98.07
2018-10-09T00:54:25.684Z,97.98
2018-10-09T00:56:55.219Z,98.21
2018-10-09T00:59:24.484Z,99.50
2018-10-09T01:01:53.546Z,99.73
2018-10-09T01:04:22.665Z,99.88
2018-10-09T01:06:51.824Z,99.75
2018-10-09T01:09:21.115Z,100.00
2018-10-09T01:11:50.539Z,100.00
2018-10-09T01:14:19.489Z,100.00
2018-10-09T01:16:48.619Z,100.00
2018-10-09T01:19:17.636Z,100.00
2018-10-09T01:21:46.538Z,100.00
2018-10-09T01:24:15.365Z,100.00
2018-10-09T01:26:44.872Z,100.00
2018-10-09T01:29:14.491Z,99.96
2018-10-09T01:31:43.694Z,100.00
2018-10-09T01:34:12.980Z,100.00
2018-10-09T01:36:41.988Z,100.00
2018-10-09T01:39:11.559Z,100.00
2018-10-09T01:41:40.625Z,100.00
2018-10-09T01:44:09.664Z,100.00
2018-10-09T01:46:38.758Z,100.00
2018-10-09T01:49:08.147Z,100.00
2018-10-09T01:51:37.242Z,100.00
2018-10-09T01:54:06.152Z,100.00
2018-10-09T01:56:35.435Z,100.00
2018-10-09T01:59:04.423Z,100.00
2018-10-09T02:01:33.606Z,100.00
2018-10-09T02:04:03.324Z,100.00
2018-10-09T02:06:32.164Z,100.00
2018-10-09T02:09:01.159Z,100.00
2018-10-09T02:11:30.592Z,100.00
2018-10-09T02:13:59.495Z,100.00
2018-10-09T02:16:28.511Z,100.00
2018-10-09T02:18:57.680Z,100.00
2018-10-09T02:21:26.705Z,100.00
2018-10-09T02:23:55.685Z,100.00
2018-10-09T02:26:25.364Z,100.00
2018-10-09T02:28:54.394Z,100.00
2018-10-09T02:38:08.474Z,100.00
2018-10-09T02:40:37.361Z,100.00
2018-10-09T02:43:06.411Z,100.00
2018-10-09T02:45:35.388Z,100.00
2018-10-09T02:48:04.560Z,100.00
2018-10-09T02:50:33.516Z,100.00
2018-10-09T02:53:02.467Z,100.00
2018-10-09T02:55:31.599Z,100.00
2018-10-09T02:58:00.836Z,100.00
2018-10-09T03:00:29.992Z,100.00
2018-10-09T03:02:58.956Z,100.00
2018-10-09T03:05:28.243Z,100.00
2018-10-09T03:07:57.184Z,100.00
2018-10-09T03:10:26.275Z,100.00
2018-10-09T03:12:55.179Z,100.00
2018-10-09T03:15:24.249Z,100.00
2018-10-09T03:17:53.085Z,100.00
2018-10-09T03:20:22.387Z,100.00
2018-10-09T03:22:51.366Z,100.00
2018-10-09T03:25:20.608Z,100.00
2018-10-09T03:27:49.719Z,100.00
2018-10-09T03:30:18.526Z,100.00
2018-10-09T03:32:47.576Z,100.00
2018-10-09T03:35:16.768Z,100.00
2018-10-09T03:37:45.841Z,100.00
2018-10-09T03:40:14.852Z,100.00
2018-10-09T03:42:44.013Z,100.00
2018-10-09T03:45:13.162Z,100.00
2018-10-09T03:47:42.218Z,100.00
2018-10-09T03:50:11.230Z,100.00
2018-10-09T03:52:40.364Z,100.00
2018-10-09T03:55:09.352Z,100.00
2018-10-09T03:57:38.626Z,100.00
2018-10-09T04:00:07.956Z,100.00
2018-10-09T04:02:37.114Z,100.00
2018-10-09T04:05:06.289Z,100.00
2018-10-09T04:07:35.308Z,100.00
2018-10-09T04:10:04.411Z,100.00
2018-10-09T04:12:34.812Z,100.00
2018-10-09T04:15:03.869Z,100.00
2018-10-09T04:17:32.886Z,100.00
2018-10-09T04:20:02.020Z,100.00
2018-10-09T04:22:30.965Z,100.00
2018-10-09T04:24:59.941Z,100.00
2018-10-09T04:27:29.065Z,100.00
2018-10-09T04:29:58.123Z,100.00
2018-10-09T04:32:27.220Z,100.00
2018-10-09T04:34:56.286Z,100.00
2018-10-09T04:37:25.336Z,100.00
2018-10-09T04:39:54.488Z,100.00
2018-10-09T04:42:23.521Z,100.00
2018-10-09T04:44:52.794Z,100.00
2018-10-09T04:47:21.848Z,100.00
2018-10-09T04:49:51.265Z,100.00
2018-10-09T04:52:20.379Z,100.00
2018-10-09T04:54:49.453Z,100.00
2018-10-09T04:57:18.586Z,100.00
2018-10-09T04:59:47.589Z,100.00
2018-10-09T05:02:16.798Z,100.00
2018-10-09T05:04:45.876Z,100.00
2018-10-09T05:07:14.835Z,100.00
2018-10-09T05:09:43.789Z,100.00
2018-10-09T05:12:13.193Z,100.00
2018-10-09T05:14:42.071Z,100.00
2018-10-09T05:17:11.239Z,100.00
2018-10-09T05:19:40.646Z,100.00
2018-10-09T05:22:09.622Z,99.89
2018-10-09T05:24:38.567Z,99.73
2018-10-09T05:27:07.722Z,99.64
2018-10-09T05:29:36.550Z,99.31
2018-10-09T05:32:05.468Z,99.23
2018-10-09T05:34:34.771Z,98.10
2018-10-09T05:37:03.687Z,98.37
2018-10-09T05:39:32.574Z,97.19
2018-10-09T05:42:01.841Z,95.80
2018-10-09T05:44:30.860Z,95.31
2018-10-09T05:46:59.652Z,93.87
2018-10-09T05:49:28.964Z,93.20
2018-10-09T05:51:58.037Z,92.53
2018-10-09T05:54:26.886Z,91.77
2018-10-09T05:56:56.004Z,92.13
2018-10-09T05:59:24.891Z,91.89
2018-10-09T06:01:53.806Z,92.86
2018-10-09T06:04:22.899Z,92.21
2018-10-09T06:06:51.863Z,92.78
2018-10-09T06:09:20.726Z,91.80
2018-10-09T06:11:49.723Z,91.85
2018-10-09T06:14:18.698Z,90.60
2018-10-09T06:16:47.567Z,90.55
2018-10-09T06:19:16.579Z,90.39
2018-10-09T06:21:45.572Z,90.03
2018-10-09T06:24:14.530Z,90.01
2018-10-09T06:26:43.889Z,89.74
2018-10-09T06:29:12.758Z,89.05
2018-10-09T06:31:41.766Z,88.71
2018-10-09T06:34:10.833Z,88.72
2018-10-09T06:36:39.840Z,87.96
2018-10-09T06:39:10.725Z,87.44
2018-10-09T06:41:40.089Z,87.46
2018-10-09T06:44:08.905Z,87.62
2018-10-09T06:46:38.297Z,87.59
2018-10-09T06:49:07.310Z,87.90
2018-10-09T06:51:36.282Z,88.32
2018-10-09T06:54:05.430Z,87.50
2018-10-09T06:56:34.233Z,87.26
2018-10-09T06:59:03.193Z,87.07
2018-10-09T07:01:32.157Z,86.85
2018-10-09T07:04:01.176Z,86.47
2018-10-09T07:07:59.568Z,86.07
2018-10-09T07:11:57.717Z,85.41
2018-10-09T07:14:27.388Z,84.69
2018-10-09T07:16:56.295Z,83.19
2018-10-09T07:19:25.238Z,83.45
2018-10-09T07:21:54.330Z,80.80
2018-10-09T07:24:23.274Z,80.02
2018-10-09T07:26:52.204Z,79.96
2018-10-09T07:29:21.301Z,80.04
2018-10-09T07:31:50.356Z,80.05
2018-10-09T07:34:19.387Z,80.13
2018-10-09T07:36:48.392Z,79.74
2018-10-09T07:39:17.326Z,80.15
2018-10-09T07:41:46.190Z,79.89
2018-10-09T07:44:15.344Z,79.63
2018-10-09T07:46:44.336Z,79.29
2018-10-09T07:49:13.223Z,78.67
2018-10-09T07:51:42.262Z,78.62
2018-10-09T07:54:11.188Z,78.43
2018-10-09T07:56:40.075Z,78.85
2018-10-09T08:00:38.337Z,77.59
2018-10-09T08:03:07.383Z,78.17
2018-10-09T08:05:36.274Z,76.91
2018-10-09T08:08:05.517Z,76.56
2018-10-09T08:10:34.649Z,76.02
2018-10-09T08:13:03.606Z,77.28
2018-10-09T08:15:32.672Z,76.20
2018-10-09T08:18:01.695Z,76.21
2018-10-09T08:20:30.647Z,74.92
2018-10-09T08:22:59.993Z,74.43
2018-10-09T08:25:28.861Z,74.02
2018-10-09T08:27:57.814Z,73.41
2018-10-09T08:30:26.854Z,73.35
2018-10-09T08:32:55.747Z,72.48
2018-10-09T08:35:24.721Z,71.79
2018-10-09T08:37:53.914Z,71.74
2018-10-09T08:40:22.976Z,70.06
2018-10-09T08:42:51.968Z,70.33
2018-10-09T08:45:21.358Z,69.41
2018-10-09T08:47:50.248Z,69.14
2018-10-09T08:50:19.158Z,67.24
2018-10-09T08:53:50.843Z,67.43
2018-10-09T08:56:19.763Z,68.39
2018-10-09T08:58:48.712Z,67.29
2018-10-09T09:01:17.943Z,66.69
2018-10-09T09:03:46.835Z,65.40
2018-10-09T09:06:15.781Z,65.13
2018-10-09T09:08:45.219Z,64.53
2018-10-09T09:11:14.164Z,64.86
2018-10-09T09:13:43.169Z,64.36
2018-10-09T09:16:12.480Z,63.73
2018-10-09T09:18:41.579Z,58.21
2018-10-09T09:21:10.659Z,55.93
2018-10-09T09:23:39.652Z,55.23
2018-10-09T09:26:08.607Z,54.95
2018-10-09T09:28:37.721Z,53.22
2018-10-09T09:31:06.976Z,52.22
2018-10-09T09:33:36.003Z,53.77
2018-10-09T09:36:04.962Z,53.96
2018-10-09T09:38:33.926Z,54.42
2018-10-09T09:41:02.987Z,52.49
2018-10-09T09:43:31.877Z,52.67
2018-10-09T09:46:01.151Z,51.06
2018-10-09T09:48:29.892Z,51.89
2018-10-09T09:50:58.963Z,52.11
2018-10-09T09:53:28.065Z,52.52
2018-10-09T09:55:56.913Z,49.79
2018-10-09T09:58:26.040Z,45.76
2018-10-09T10:00:59.052Z,47.61
2018-10-09T10:03:28.311Z,48.14
2018-10-09T10:05:57.229Z,48.18
2018-10-09T10:08:26.132Z,48.12
2018-10-09T10:10:55.040Z,46.67
2018-10-09T10:13:23.950Z,44.33
2018-10-09T10:15:53.086Z,43.54
2018-10-09T10:25:06.681Z,45.58
2018-10-09T10:27:35.761Z,45.28
2018-10-09T10:30:04.825Z,45.85
2018-10-09T10:32:34.020Z,46.94
2018-10-09T10:35:02.864Z,46.80
2018-10-09T10:37:31.776Z,45.84
2018-10-09T10:40:01.498Z,45.95
2018-10-09T10:42:30.453Z,46.36
2018-10-09T10:44:59.297Z,46.39
2018-10-09T10:47:28.368Z,46.96
2018-10-09T10:49:57.145Z,46.67
2018-10-09T10:52:26.070Z,46.11
2018-10-09T10:54:55.100Z,45.86
2018-10-09T10:57:24.140Z,46.34
2018-10-09T10:59:53.006Z,45.54
2018-10-09T11:02:22.081Z,45.15
2018-10-09T11:04:50.926Z,44.35
2018-10-09T11:07:20.868Z,44.18
2018-10-09T11:09:50.245Z,44.19
2018-10-09T11:12:19.084Z,43.99
2018-10-09T11:14:48.006Z,45.44
2018-10-09T11:17:17.124Z,45.45
2018-10-09T11:19:46.088Z,44.35
2018-10-09T11:22:15.063Z,43.38
2018-10-09T11:24:44.135Z,44.47
2018-10-09T11:27:13.090Z,45.40
2018-10-09T11:29:42.020Z,45.54
2018-10-09T11:32:10.936Z,45.49
2018-10-09T11:34:39.957Z,46.02
2018-10-09T11:37:09.084Z,44.37
2018-10-09T11:39:38.324Z,44.59
2018-10-09T11:42:07.388Z,45.16
2018-10-09T11:44:36.364Z,45.98
2018-10-09T11:48:35.936Z,46.42
2018-10-09T11:51:04.929Z,46.02
2018-10-09T11:53:33.952Z,45.22
2018-10-09T11:56:03.311Z,44.13
2018-10-09T11:58:32.292Z,44.27
2018-10-09T12:01:04.280Z,44.19
2018-10-09T12:03:33.730Z,43.91
2018-10-09T12:06:02.636Z,44.38
2018-10-09T12:08:31.904Z,45.29
2018-10-09T12:11:01.170Z,44.51
2018-10-09T12:13:30.233Z,43.25
2018-10-09T12:16:01.997Z,43.05
2018-10-09T12:18:31.151Z,43.22
2018-10-09T12:21:00.247Z,43.33
2018-10-09T12:23:29.682Z,43.23
2018-10-09T12:25:58.677Z,43.68
2018-10-09T12:29:57.915Z,43.00
2018-10-09T12:39:14.169Z,43.36
2018-10-09T12:41:43.277Z,44.57
2018-10-09T12:44:12.384Z,43.79
2018-10-09T12:46:41.601Z,44.39
2018-10-09T12:49:10.922Z,44.63
2018-10-09T12:51:40.045Z,43.70
2018-10-09T12:54:13.676Z,44.30
2018-10-09T12:56:42.897Z,43.92
2018-10-09T12:59:14.228Z,44.04
2018-10-09T13:01:43.476Z,43.30
2018-10-09T13:04:12.611Z,42.75
2018-10-09T13:06:41.722Z,42.03
2018-10-09T13:09:13.396Z,42.09
2018-10-09T13:11:42.612Z,43.34
2018-10-09T13:14:13.079Z,43.71
2018-10-09T13:16:42.376Z,43.80
2018-10-09T13:19:12.745Z,44.09
2018-10-09T13:21:42.970Z,42.84
2018-10-09T13:24:12.204Z,43.05
2018-10-09T13:26:41.254Z,43.09
2018-10-09T13:29:10.671Z,42.61
2018-10-09T13:31:39.729Z,42.92
2018-10-09T13:34:08.710Z,42.64
2018-10-09T13:36:37.641Z,43.38
2018-10-09T13:39:07.728Z,42.45
2018-10-09T13:41:36.674Z,42.39
2018-10-09T13:44:06.102Z,42.74
2018-10-09T13:46:34.981Z,43.10
2018-10-09T13:49:03.867Z,43.04
2018-10-09T13:51:32.903Z,43.34
2018-10-09T13:54:01.945Z,43.03
2018-10-09T13:56:30.907Z,42.83
2018-10-09T13:59:00.129Z,43.80
2018-10-09T14:01:29.009Z,42.37
2018-10-09T14:03:57.992Z,42.94
2018-10-09T14:06:27.222Z,42.95
2018-10-09T14:08:56.242Z,43.05
2018-10-09T14:11:25.141Z,43.22
2018-10-09T14:13:54.144Z,43.94
2018-10-09T14:16:23.177Z,44.63
2018-10-09T14:18:52.198Z,44.47
2018-10-09T14:21:21.289Z,44.57
2018-10-09T14:23:50.262Z,45.03
2018-10-09T14:26:19.174Z,44.46
2018-10-09T14:28:48.205Z,43.90
2018-10-09T14:33:45.110Z,44.31
2018-10-09T14:36:14.065Z,45.08
2018-10-09T14:38:42.874Z,45.05
2018-10-09T14:41:11.906Z,45.04
2018-10-09T14:43:40.992Z,46.08
2018-10-09T14:46:12.432Z,45.94
2018-10-09T14:48:41.834Z,46.54
2018-10-09T14:51:11.151Z,46.43
2018-10-09T14:53:40.204Z,44.36
2018-10-09T14:56:09.383Z,45.30
2018-10-09T14:58:38.341Z,45.91
2018-10-09T15:01:07.816Z,45.59
2018-10-09T15:03:37.180Z,44.72
2018-10-09T15:06:06.199Z,45.28
2018-10-09T15:10:04.669Z,45.61
2018-10-09T15:12:33.673Z,46.59
2018-10-09T15:15:02.740Z,47.03
2018-10-09T15:17:31.803Z,47.58
2018-10-09T15:20:00.589Z,48.44
2018-10-09T15:22:29.445Z,48.36
2018-10-09T15:24:58.463Z,48.68
2018-10-09T15:27:27.371Z,49.07
2018-10-09T15:29:56.309Z,49.27
2018-10-09T15:32:25.312Z,50.43
2018-10-09T15:34:54.196Z,50.86
2018-10-09T15:37:23.200Z,50.58
2018-10-09T15:39:52.555Z,53.28
2018-10-09T15:42:21.490Z,53.18
2018-10-09T15:44:50.787Z,52.98
2018-10-09T15:47:19.931Z,53.11
2018-10-09T15:49:49.013Z,53.43
2018-10-09T15:52:18.129Z,53.50
2018-10-09T15:54:47.200Z,54.25
2018-10-09T15:57:16.829Z,53.54
2018-10-09T15:59:47.461Z,54.93
2018-10-09T16:02:16.624Z,56.17
2018-10-09T16:04:45.580Z,55.37
2018-10-09T16:07:14.941Z,56.52
2018-10-09T16:09:43.975Z,55.73
2018-10-09T16:12:13.157Z,56.00
2018-10-09T16:14:42.152Z,56.28
2018-10-09T16:17:11.374Z,56.49
2018-10-09T16:19:40.493Z,56.77
2018-10-09T16:22:09.697Z,56.95
2018-10-09T16:24:38.825Z,57.41
2018-10-09T16:27:07.867Z,57.88
2018-10-09T16:29:37.110Z,58.96
2018-10-09T16:32:06.284Z,58.51
2018-10-09T16:34:35.345Z,58.76
2018-10-09T16:37:04.741Z,58.63
2018-10-09T16:39:33.662Z,59.50
2018-10-09T16:42:02.776Z,60.33
2018-10-09T16:44:31.804Z,60.38
2018-10-09T16:47:04.544Z,62.31
2018-10-09T16:49:34.773Z,60.58
2018-10-09T16:52:04.072Z,60.72
2018-10-09T16:54:33.120Z,61.64
2018-10-09T16:57:02.149Z,60.16
2018-10-09T16:59:31.075Z,59.76
2018-10-09T17:02:00.068Z,59.04
2018-10-09T17:04:29.262Z,59.27
2018-10-09T17:06:58.172Z,60.93
2018-10-09T17:09:27.082Z,61.62
2018-10-09T17:11:56.748Z,61.21
2018-10-09T17:14:25.673Z,60.69
2018-10-09T17:16:54.630Z,60.85
2018-10-09T17:19:23.585Z,61.13
2018-10-09T17:21:52.548Z,61.45
2018-10-09T17:24:21.683Z,62.80
2018-10-09T17:26:51.172Z,62.15
2018-10-09T17:29:20.012Z,62.31
2018-10-09T17:31:49.137Z,62.40
2018-10-09T17:34:18.526Z,62.81
2018-10-09T17:36:47.648Z,62.21
2018-10-09T17:39:16.718Z,62.96
2018-10-09T17:41:45.888Z,63.06
2018-10-09T17:44:14.798Z,62.20
2018-10-09T17:46:43.974Z,62.90
2018-10-09T17:49:14.215Z,61.09
2018-10-09T17:51:43.297Z,61.04
2018-10-09T17:54:12.418Z,61.79
2018-10-09T17:56:44.647Z,61.44
2018-10-09T17:59:16.217Z,63.24
2018-10-09T18:01:45.285Z,63.73
2018-10-09T18:04:14.396Z,62.89
2018-10-09T18:06:43.593Z,61.17
2018-10-09T18:09:13.479Z,58.89
2018-10-09T18:11:42.479Z,58.84
2018-10-09T18:14:12.052Z,60.29
2018-10-09T18:16:41.013Z,59.68
2018-10-09T18:19:10.095Z,60.95
2018-10-09T18:21:39.333Z,62.54
2018-10-09T18:24:08.240Z,64.00
2018-10-09T18:26:37.173Z,64.91
2018-10-09T18:29:06.413Z,66.79
2018-10-09T18:31:35.345Z,67.48
2018-10-09T18:34:04.582Z,68.39
2018-10-09T18:36:34.079Z,68.32
2018-10-09T18:39:03.086Z,69.92
2018-10-09T18:41:32.379Z,70.08
2018-10-09T18:44:01.305Z,70.89
2018-10-09T18:46:30.485Z,71.90
2018-10-09T18:48:59.342Z,72.37
2018-10-09T18:51:28.684Z,72.90
2018-10-09T18:53:57.628Z,72.86
2018-10-09T18:56:26.671Z,73.72
2018-10-09T18:58:55.927Z,74.07
2018-10-09T19:01:24.921Z,75.39
2018-10-09T19:03:53.947Z,75.61
2018-10-09T19:06:23.029Z,75.00
2018-10-09T19:08:52.000Z,74.47
2018-10-09T19:18:09.725Z,76.05
2018-10-09T19:20:38.631Z,75.10
2018-10-09T19:23:07.901Z,75.70
2018-10-09T19:25:37.176Z,76.10
2018-10-09T19:28:06.864Z,75.85
2018-10-09T19:30:35.908Z,75.52
2018-10-09T19:33:05.516Z,75.38
2018-10-09T19:35:34.861Z,75.35
2018-10-09T19:38:03.785Z,74.90
2018-10-09T19:40:33.622Z,74.20
2018-10-09T19:43:02.494Z,74.19
2018-10-09T19:45:31.462Z,75.13
2018-10-09T19:48:00.483Z,75.97
2018-10-09T19:50:29.415Z,77.04
2018-10-09T19:52:58.327Z,76.13
2018-10-09T19:55:27.739Z,76.39
2018-10-09T19:57:56.652Z,75.97
2018-10-09T20:00:25.648Z,75.63
2018-10-09T20:02:54.753Z,76.43
2018-10-09T20:05:23.904Z,76.11
2018-10-09T20:07:53.352Z,76.44
2018-10-09T20:10:22.459Z,76.00
2018-10-09T20:12:51.526Z,76.42
2018-10-09T20:15:20.469Z,77.21
2018-10-09T20:17:49.797Z,79.10
2018-10-09T20:20:18.665Z,78.84
2018-10-09T20:22:47.648Z,78.07
2018-10-09T20:25:17.067Z,78.87
2018-10-09T20:27:46.069Z,79.94
2018-10-09T20:30:15.418Z,81.42
2018-10-09T20:32:45.100Z,81.69
2018-10-09T20:35:14.230Z,81.49
2018-10-09T20:37:43.473Z,82.19
2018-10-09T20:40:12.650Z,82.77
2018-10-09T20:42:41.625Z,82.85
2018-10-09T20:45:10.786Z,83.24
2018-10-09T20:47:44.814Z,82.78
2018-10-09T20:50:14.676Z,82.93
2018-10-09T20:52:44.417Z,83.02
2018-10-09T20:55:13.523Z,83.21
2018-10-09T20:57:42.571Z,83.94
2018-10-09T21:00:11.992Z,84.08
2018-10-09T21:02:40.970Z,84.48
2018-10-09T21:05:10.079Z,84.47
2018-10-09T21:07:39.462Z,85.21
2018-10-09T21:10:08.416Z,86.37
2018-10-09T21:12:37.690Z,86.61
2018-10-09T21:15:06.942Z,87.33
2018-10-09T21:17:35.933Z,87.82
2018-10-09T21:20:04.900Z,88.09
2018-10-09T21:22:34.033Z,87.45
2018-10-09T21:25:02.844Z,86.39
2018-10-09T21:27:31.859Z,85.65
2018-10-09T21:30:01.081Z,85.65
2018-10-09T21:32:29.953Z,85.25
2018-10-09T21:34:58.797Z,83.83
2018-10-09T21:37:27.697Z,83.29
2018-10-09T21:39:56.597Z,82.67
2018-10-09T21:42:25.447Z,82.10
2018-10-09T21:44:54.390Z,81.54
2018-10-09T21:47:23.217Z,81.21
2018-10-09T21:49:52.158Z,81.46
2018-10-09T21:52:21.194Z,81.55
2018-10-09T21:54:50.127Z,82.44
2018-10-09T21:57:19.005Z,82.07
2018-10-09T21:59:47.908Z,81.34
2018-10-09T22:02:16.760Z,81.19
2018-10-09T22:04:45.645Z,81.23
2018-10-09T22:07:18.134Z,81.33
2018-10-09T22:09:47.130Z,81.79
2018-10-09T22:12:16.000Z,81.25
2018-10-09T22:14:44.953Z,82.29
2018-10-09T22:17:13.839Z,82.07
2018-10-09T22:19:42.675Z,82.58
2018-10-09T22:22:11.604Z,82.33
2018-10-09T22:24:40.492Z,82.65
2018-10-09T22:27:09.346Z,82.80
2018-10-09T22:29:38.267Z,82.84
2018-10-09T22:32:07.210Z,82.38
2018-10-09T22:34:36.443Z,82.23
2018-10-09T22:37:05.772Z,82.77
2018-10-09T22:39:34.568Z,82.71
2018-10-09T22:42:03.426Z,82.53
2018-10-09T22:44:32.835Z,81.74
2018-10-09T22:47:01.669Z,82.36
2018-10-09T22:49:30.620Z,81.82
2018-10-09T22:52:00.123Z,81.92
2018-10-09T22:54:29.049Z,82.54
2018-10-09T22:56:58.031Z,83.14
2018-10-09T22:59:27.803Z,83.24
2018-10-09T23:01:56.927Z,83.48
2018-10-09T23:04:25.921Z,83.30
2018-10-09T23:06:55.165Z,83.92
2018-10-09T23:09:24.386Z,84.29
2018-10-09T23:11:53.465Z,84.92
2018-10-09T23:14:22.483Z,85.86
2018-10-09T23:16:51.688Z,86.55
2018-10-09T23:19:20.944Z,86.28
2018-10-09T23:21:49.969Z,86.70
2018-10-09T23:24:19.093Z,86.75
2018-10-09T23:26:48.195Z,87.37
2018-10-09T23:29:17.227Z,87.52
2018-10-09T23:31:46.341Z,87.61
2018-10-09T23:34:15.351Z,87.58
2018-10-09T23:36:44.381Z,87.67
2018-10-09T23:39:13.404Z,88.51
2018-10-09T23:42:45.730Z,88.39
2018-10-09T23:45:14.847Z,88.44
2018-10-09T23:47:43.920Z,89.61
2018-10-09T23:50:13.549Z,90.18
2018-10-09T23:52:42.547Z,89.88
2018-10-09T23:55:11.636Z,90.69
2018-10-09T23:57:40.732Z,90.62
